Time;durP1;ratioP1;P1;durP2;ratioP2;P2;SDS_P1;SDS_P2;PMS_P1;PMS_P2;Temp;Humidity;BMP_temperature;BMP_pressure;BME280_temperature;BME280_humidity;BME280_pressure;Samples;Min_cycle;Max_cycle;Signal;HPM_P1;HPM_P2
2024/02/15 00:00:19;;;;;;;5.47;3.53;;;;;;;;;;696784;28;1880;-66
2024/02/15 00:00:39;;;;;;;6.25;3.63;;;;;;;;;;699507;28;1124;-67
2024/02/15 00:00:59;;;;;;;6.07;3.57;;;;;;;;;;699141;28;4350;-67
2024/02/15 00:01:20;;;;;;;6.45;3.50;;;;;;;;;;698198;28;1506;-66
2024/02/15 00:01:40;;;;;;;6.93;3.77;;;;;;;;;;700372;28;860;-67
2024/02/15 00:02:00;;;;;;;5.87;3.73;;;;;;;;;;698458;28;1630;-66
2024/02/15 00:02:20;;;;;;;5.87;3.53;;;;;;;;;;700066;28;2398;-66
2024/02/15 00:02:41;;;;;;;5.90;3.77;;;;;;;;;;702494;28;893;-66
2024/02/15 00:03:01;;;;;;;6.43;3.77;;;;;;;;;;701428;27;888;-67
2024/02/15 00:03:22;;;;;;;6.07;3.90;;;;;;;;;;701614;28;2176;-67
2024/02/15 00:03:42;;;;;;;5.80;3.93;;;;;;;;;;704974;28;801;-66
2024/02/15 00:04:02;;;;;;;5.80;3.80;;;;;;;;;;704675;27;4498;-67
2024/02/15 00:04:23;;;;;;;6.15;3.80;;;;;;;;;;702502;28;1151;-66
2024/02/15 00:04:43;;;;;;;6.97;3.93;;;;;;;;;;705765;27;958;-67
2024/02/15 00:05:04;;;;;;;6.20;3.80;;;;;;;;;;704921;27;1263;-67
2024/02/15 00:05:24;;;;;;;5.85;3.85;;;;;;;;;;700279;28;1783;-66
2024/02/15 00:05:45;;;;;;;6.30;4.20;;;;;;;;;;699504;28;1018;-65
2024/02/15 00:06:06;;;;;;;6.22;4.13;;;;;;;;;;697744;28;1896;-67
2024/02/15 00:06:26;;;;;;;8.00;4.32;;;;;;;;;;697861;28;911;-67
2024/02/15 00:06:47;;;;;;;7.53;4.33;;;;;;;;;;698002;28;1277;-67
2024/02/15 00:07:07;;;;;;;6.40;4.15;;;;;;;;;;696989;28;4328;-66
2024/02/15 00:07:27;;;;;;;7.47;4.27;;;;;;;;;;698976;28;1290;-67
2024/02/15 00:07:48;;;;;;;7.37;4.80;;;;;;;;;;700489;28;3540;-66
2024/02/15 00:08:09;;;;;;;8.02;4.90;;;;;;;;;;696102;28;4913;-67
2024/02/15 00:08:29;;;;;;;7.75;4.60;;;;;;;;;;697511;28;1992;-66
2024/02/15 00:08:52;;;;;;;7.00;4.60;;;;;;;;;;699229;28;1153;-66
2024/02/15 00:09:12;;;;;;;7.82;4.53;;;;;;;;;;699083;28;1072;-66
2024/02/15 00:09:32;;;;;;;8.07;4.73;;;;;;;;;;699807;28;1280;-67
2024/02/15 00:09:53;;;;;;;7.67;5.20;;;;;;;;;;699066;28;1285;-67
2024/02/15 00:10:14;;;;;;;7.32;5.07;;;;;;;;;;702292;28;4321;-67
2024/02/15 00:10:34;;;;;;;6.50;4.57;;;;;;;;;;703090;28;793;-66
2024/02/15 00:10:54;;;;;;;7.77;4.73;;;;;;;;;;701300;28;773;-66
2024/02/15 00:11:15;;;;;;;8.17;4.60;;;;;;;;;;699749;28;2232;-66
2024/02/15 00:11:35;;;;;;;6.50;4.30;;;;;;;;;;701940;27;1013;-66
2024/02/15 00:11:56;;;;;;;6.77;4.53;;;;;;;;;;701471;28;857;-67
2024/02/15 00:12:16;;;;;;;7.40;4.72;;;;;;;;;;699500;28;2292;-67
2024/02/15 00:12:36;;;;;;;7.30;4.70;;;;;;;;;;701515;28;831;-66
2024/02/15 00:12:57;;;;;;;6.50;4.40;;;;;;;;;;700745;28;5373;-67
2024/02/15 00:13:17;;;;;;;7.18;4.55;;;;;;;;;;698967;28;1938;-66
2024/02/15 00:13:38;;;;;;;7.17;4.60;;;;;;;;;;702846;28;860;-67
2024/02/15 00:13:58;;;;;;;8.27;4.40;;;;;;;;;;698901;28;907;-66
2024/02/15 00:14:18;;;;;;;8.73;4.25;;;;;;;;;;698729;28;2280;-66
2024/02/15 00:14:39;;;;;;;6.77;4.33;;;;;;;;;;700652;28;1265;-67
2024/02/15 00:14:59;;;;;;;6.93;4.77;;;;;;;;;;702358;28;1242;-67
2024/02/15 00:15:19;;;;;;;6.53;4.28;;;;;;;;;;700616;28;1533;-67
2024/02/15 00:15:39;;;;;;;5.93;3.80;;;;;;;;;;701863;28;785;-67
2024/02/15 00:16:00;;;;;;;6.83;4.00;;;;;;;;;;700376;28;4328;-67
2024/02/15 00:16:21;;;;;;;6.65;4.30;;;;;;;;;;700029;28;1735;-66
2024/02/15 00:16:41;;;;;;;7.05;4.38;;;;;;;;;;701570;28;1492;-67
2024/02/15 00:17:02;;;;;;;6.97;4.03;;;;;;;;;;695936;28;1136;-66
2024/02/15 00:17:22;;;;;;;7.50;4.47;;;;;;;;;;697553;28;1615;-67
2024/02/15 00:17:42;;;;;;;6.20;4.17;;;;;;;;;;696708;28;1214;-66
2024/02/15 00:18:03;;;;;;;7.60;4.10;;;;;;;;;;698762;28;868;-67
2024/02/15 00:18:23;;;;;;;6.53;3.97;;;;;;;;;;697402;28;1170;-66
2024/02/15 00:18:44;;;;;;;6.70;3.97;;;;;;;;;;698021;28;854;-66
2024/02/15 00:19:06;;;;;;;6.88;4.00;;;;;;;;;;701715;28;4528;-67
2024/02/15 00:19:29;;;;;;;5.88;3.80;;;;;;;;;;695976;28;2237;-67
2024/02/15 00:19:50;;;;;;;6.53;3.95;;;;;;;;;;699616;28;1332;-66
2024/02/15 00:20:10;;;;;;;6.63;4.00;;;;;;;;;;694831;28;2572;-65
2024/02/15 00:20:31;;;;;;;6.10;4.00;;;;;;;;;;697130;28;952;-66
2024/02/15 00:20:51;;;;;;;5.63;3.97;;;;;;;;;;696172;28;1289;-66
2024/02/15 00:21:11;;;;;;;6.70;3.95;;;;;;;;;;695012;28;1041;-66
2024/02/15 00:21:32;;;;;;;7.70;4.00;;;;;;;;;;698883;28;1105;-67
2024/02/15 00:21:52;;;;;;;6.97;4.30;;;;;;;;;;702786;28;899;-67
2024/02/15 00:22:12;;;;;;;10.10;4.43;;;;;;;;;;702758;27;4476;-66
2024/02/15 00:22:33;;;;;;;10.10;4.00;;;;;;;;;;705456;27;1253;-66
2024/02/15 00:22:55;;;;;;;6.80;4.10;;;;;;;;;;705586;27;1151;-65
2024/02/15 00:23:16;;;;;;;8.95;4.20;;;;;;;;;;698880;28;1945;-66
2024/02/15 00:23:36;;;;;;;7.32;3.90;;;;;;;;;;700578;28;939;-67
2024/02/15 00:23:59;;;;;;;6.23;3.90;;;;;;;;;;699203;28;1150;-66
2024/02/15 00:24:20;;;;;;;7.45;3.90;;;;;;;;;;695985;28;2353;-66
2024/02/15 00:24:41;;;;;;;7.43;4.10;;;;;;;;;;700914;28;924;-66
2024/02/15 00:25:02;;;;;;;6.97;4.20;;;;;;;;;;697665;28;4576;-66
2024/02/15 00:25:22;;;;;;;6.80;3.90;;;;;;;;;;700183;28;2265;-66
2024/02/15 00:25:44;;;;;;;7.40;4.18;;;;;;;;;;701475;28;1225;-66
2024/02/15 00:26:05;;;;;;;7.03;4.10;;;;;;;;;;705316;27;880;-66
2024/02/15 00:26:26;;;;;;;6.30;4.00;;;;;;;;;;700666;28;1110;-66
2024/02/15 00:26:46;;;;;;;6.40;4.10;;;;;;;;;;702870;28;1428;-65
2024/02/15 00:27:06;;;;;;;6.97;4.35;;;;;;;;;;705405;27;899;-66
2024/02/15 00:27:27;;;;;;;7.93;4.20;;;;;;;;;;698937;28;1750;-66
2024/02/15 00:27:47;;;;;;;5.60;3.90;;;;;;;;;;698001;28;1315;-67
2024/02/15 00:28:07;;;;;;;5.90;3.83;;;;;;;;;;696995;28;4257;-67
2024/02/15 00:28:28;;;;;;;6.33;3.80;;;;;;;;;;693850;28;1919;-66
2024/02/15 00:28:49;;;;;;;6.50;3.80;;;;;;;;;;694897;28;1037;-66
2024/02/15 00:29:09;;;;;;;7.00;3.77;;;;;;;;;;691370;28;1797;-67
2024/02/15 00:29:31;;;;;;;6.35;4.03;;;;;;;;;;695812;28;928;-67
2024/02/15 00:29:51;;;;;;;6.10;4.00;;;;;;;;;;694883;28;916;-67
2024/02/15 00:30:12;;;;;;;6.57;3.90;;;;;;;;;;694030;28;1530;-67
2024/02/15 00:30:32;;;;;;;6.15;3.80;;;;;;;;;;697957;28;1345;-67
2024/02/15 00:30:53;;;;;;;6.10;3.93;;;;;;;;;;698622;28;940;-66
2024/02/15 00:31:13;;;;;;;6.05;4.13;;;;;;;;;;696192;28;4255;-66
2024/02/15 00:31:33;;;;;;;6.93;3.80;;;;;;;;;;697558;28;777;-66
2024/02/15 00:31:54;;;;;;;7.17;3.73;;;;;;;;;;700065;28;1132;-66
2024/02/15 00:32:15;;;;;;;6.15;3.80;;;;;;;;;;700614;28;1830;-66
2024/02/15 00:32:36;;;;;;;6.43;3.67;;;;;;;;;;702757;28;801;-66
2024/02/15 00:32:56;;;;;;;6.30;3.80;;;;;;;;;;699705;28;1050;-66
2024/02/15 00:33:17;;;;;;;5.88;3.72;;;;;;;;;;700348;28;2470;-66
2024/02/15 00:33:37;;;;;;;6.30;3.73;;;;;;;;;;701993;28;1227;-66
2024/02/15 00:33:58;;;;;;;5.97;3.87;;;;;;;;;;701251;28;4290;-66
2024/02/15 00:34:18;;;;;;;7.35;3.80;;;;;;;;;;701064;28;1877;-66
2024/02/15 00:34:38;;;;;;;8.93;3.88;;;;;;;;;;702664;28;942;-66
2024/02/15 00:34:59;;;;;;;9.17;4.10;;;;;;;;;;704109;28;851;-66
2024/02/15 00:35:19;;;;;;;8.03;4.20;;;;;;;;;;704025;27;2406;-67
2024/02/15 00:35:39;;;;;;;5.95;3.65;;;;;;;;;;705269;27;876;-67
2024/02/15 00:36:01;;;;;;;6.83;3.90;;;;;;;;;;703564;28;797;-66
2024/02/15 00:36:23;;;;;;;5.60;3.60;;;;;;;;;;703541;27;2239;-66
2024/02/15 00:36:44;;;;;;;5.38;3.60;;;;;;;;;;705438;27;1046;-66
2024/02/15 00:37:04;;;;;;;7.22;3.60;;;;;;;;;;704488;27;4318;-66
2024/02/15 00:37:25;;;;;;;6.53;3.83;;;;;;;;;;702318;28;1516;-66
2024/02/15 00:37:45;;;;;;;6.47;3.77;;;;;;;;;;702715;28;936;-67
2024/02/15 00:38:07;;;;;;;6.80;3.70;;;;;;;;;;701229;28;963;-66
2024/02/15 00:38:27;;;;;;;6.47;3.83;;;;;;;;;;697764;28;1690;-66
2024/02/15 00:38:47;;;;;;;5.90;3.70;;;;;;;;;;698472;28;1420;-66
2024/02/15 00:39:08;;;;;;;6.30;3.63;;;;;;;;;;699483;28;762;-66
2024/02/15 00:39:28;;;;;;;6.20;3.60;;;;;;;;;;698179;28;1799;-66
2024/02/15 00:39:48;;;;;;;6.37;3.53;;;;;;;;;;702144;28;943;-66
2024/02/15 00:40:09;;;;;;;7.70;3.80;;;;;;;;;;700152;28;4396;-67
2024/02/15 00:40:29;;;;;;;7.70;3.75;;;;;;;;;;701402;28;1445;-66
2024/02/15 00:40:49;;;;;;;7.10;3.90;;;;;;;;;;702849;28;904;-67
2024/02/15 00:41:10;;;;;;;7.00;3.83;;;;;;;;;;700657;28;981;-66
2024/02/15 00:41:31;;;;;;;5.70;3.75;;;;;;;;;;702057;28;959;-66
2024/02/15 00:41:51;;;;;;;5.50;3.60;;;;;;;;;;701960;28;1138;-66
2024/02/15 00:42:12;;;;;;;6.10;3.70;;;;;;;;;;699213;28;1773;-66
2024/02/15 00:42:32;;;;;;;6.97;3.88;;;;;;;;;;703565;27;813;-67
2024/02/15 00:42:53;;;;;;;6.60;3.80;;;;;;;;;;704939;27;935;-67
2024/02/15 00:43:13;;;;;;;6.67;3.83;;;;;;;;;;703511;27;4327;-66
2024/02/15 00:43:37;;;;;;;6.20;3.83;;;;;;;;;;705123;27;1186;-66
2024/02/15 00:43:58;;;;;;;6.38;4.00;;;;;;;;;;705051;27;935;-67
2024/02/15 00:44:18;;;;;;;6.60;3.87;;;;;;;;;;702915;27;1926;-67
2024/02/15 00:44:39;;;;;;;6.78;3.83;;;;;;;;;;703249;27;6619;-67
2024/02/15 00:44:59;;;;;;;6.32;3.78;;;;;;;;;;703258;28;1229;-66
2024/02/15 00:45:19;;;;;;;6.53;3.63;;;;;;;;;;701533;28;1957;-67
2024/02/15 00:45:40;;;;;;;6.43;3.60;;;;;;;;;;704418;28;841;-66
2024/02/15 00:46:00;;;;;;;6.20;3.50;;;;;;;;;;704722;28;4318;-66
2024/02/15 00:46:21;;;;;;;7.47;4.10;;;;;;;;;;704251;27;881;-66
2024/02/15 00:46:41;;;;;;;6.60;3.78;;;;;;;;;;705010;28;1189;-67
2024/02/15 00:47:01;;;;;;;5.63;3.93;;;;;;;;;;704793;28;1017;-67
2024/02/15 00:47:22;;;;;;;7.20;4.00;;;;;;;;;;702147;27;2390;-67
2024/02/15 00:47:42;;;;;;;6.73;3.60;;;;;;;;;;704588;28;836;-67
2024/02/15 00:48:03;;;;;;;5.77;3.63;;;;;;;;;;706071;27;987;-67
2024/02/15 00:48:28;;;;;;;7.82;4.05;;;;;;;;;;703328;27;1902;-67
2024/02/15 00:48:48;;;;;;;7.25;3.80;;;;;;;;;;705454;27;946;-67
2024/02/15 00:49:09;;;;;;;6.10;3.60;;;;;;;;;;705346;27;4470;-66
2024/02/15 00:49:29;;;;;;;6.13;3.40;;;;;;;;;;698205;28;1708;-66
2024/02/15 00:49:50;;;;;;;6.20;3.50;;;;;;;;;;701333;28;1232;-67
2024/02/15 00:50:10;;;;;;;5.80;3.58;;;;;;;;;;698404;28;1767;-66
2024/02/15 00:50:30;;;;;;;6.70;3.88;;;;;;;;;;697532;28;902;-67
2024/02/15 00:50:51;;;;;;;6.83;3.60;;;;;;;;;;698999;28;936;-67
2024/02/15 00:51:11;;;;;;;6.60;3.80;;;;;;;;;;697885;28;2173;-67
2024/02/15 00:51:35;;;;;;;6.63;3.77;;;;;;;;;;700384;28;1213;-66
2024/02/15 00:51:55;;;;;;;5.53;3.70;;;;;;;;;;699459;28;4340;-67
2024/02/15 00:52:18;;;;;;;6.27;3.90;;;;;;;;;;700419;28;1720;-67
2024/02/15 00:52:38;;;;;;;5.72;3.90;;;;;;;;;;700284;28;979;-66
2024/02/15 00:52:58;;;;;;;6.82;3.70;;;;;;;;;;701219;28;1289;-66
2024/02/15 00:53:18;;;;;;;6.47;3.77;;;;;;;;;;700667;28;1744;-67
2024/02/15 00:53:39;;;;;;;6.80;3.83;;;;;;;;;;702309;28;797;-67
2024/02/15 00:54:00;;;;;;;7.63;3.90;;;;;;;;;;703956;28;1002;-66
2024/02/15 00:54:20;;;;;;;7.10;3.85;;;;;;;;;;701543;27;1572;-67
2024/02/15 00:54:40;;;;;;;8.13;4.20;;;;;;;;;;704367;27;1280;-67
2024/02/15 00:55:00;;;;;;;6.40;3.73;;;;;;;;;;704954;27;4506;-66
2024/02/15 00:55:21;;;;;;;6.10;3.50;;;;;;;;;;703460;27;1733;-67
2024/02/15 00:55:41;;;;;;;6.37;3.60;;;;;;;;;;704706;27;1022;-67
2024/02/15 00:56:01;;;;;;;7.07;3.77;;;;;;;;;;705246;28;958;-67
2024/02/15 00:56:22;;;;;;;8.97;3.70;;;;;;;;;;703673;27;2360;-67
2024/02/15 00:56:42;;;;;;;7.53;3.60;;;;;;;;;;704292;27;1359;-67
2024/02/15 00:57:02;;;;;;;7.40;3.73;;;;;;;;;;705537;27;1212;-67
2024/02/15 00:57:23;;;;;;;8.25;4.10;;;;;;;;;;703625;27;1922;-66
2024/02/15 00:57:43;;;;;;;6.53;4.07;;;;;;;;;;704961;27;845;-67
2024/02/15 00:58:03;;;;;;;6.10;3.90;;;;;;;;;;703721;28;4919;-67
2024/02/15 00:58:25;;;;;;;6.45;3.65;;;;;;;;;;704066;27;1045;-66
2024/02/15 00:58:45;;;;;;;8.90;3.75;;;;;;;;;;704614;27;805;-66
2024/02/15 00:59:05;;;;;;;6.73;3.70;;;;;;;;;;703283;27;1010;-67
2024/02/15 00:59:26;;;;;;;6.50;3.70;;;;;;;;;;702009;28;1935;-67
2024/02/15 00:59:46;;;;;;;7.20;3.70;;;;;;;;;;703383;28;904;-66
2024/02/15 01:00:09;;;;;;;6.07;3.90;;;;;;;;;;705485;27;1202;-66
2024/02/15 01:00:29;;;;;;;6.38;4.00;;;;;;;;;;702225;28;1231;-67
2024/02/15 01:00:50;;;;;;;6.10;3.97;;;;;;;;;;705444;27;1064;-67
2024/02/15 01:01:11;;;;;;;6.60;3.80;;;;;;;;;;703558;27;4510;-67
2024/02/15 01:01:32;;;;;;;6.85;3.80;;;;;;;;;;702866;28;916;-67
2024/02/15 01:01:53;;;;;;;7.77;4.00;;;;;;;;;;704329;27;1416;-66
2024/02/15 01:02:13;;;;;;;6.97;3.80;;;;;;;;;;704237;27;2329;-66
2024/02/15 01:02:33;;;;;;;7.30;3.73;;;;;;;;;;700400;28;1303;-67
2024/02/15 01:02:55;;;;;;;7.17;4.10;;;;;;;;;;700873;28;911;-66
2024/02/15 01:03:15;;;;;;;7.05;3.97;;;;;;;;;;700007;28;1831;-67
2024/02/15 01:03:36;;;;;;;7.78;4.03;;;;;;;;;;701521;28;861;-66
2024/02/15 01:03:56;;;;;;;6.80;3.90;;;;;;;;;;700800;28;4904;-66
2024/02/15 01:04:16;;;;;;;6.13;3.90;;;;;;;;;;699179;28;4543;-66
2024/02/15 01:04:37;;;;;;;6.87;3.93;;;;;;;;;;705539;27;950;-66
2024/02/15 01:04:58;;;;;;;7.00;3.90;;;;;;;;;;704285;28;1296;-67
2024/02/15 01:05:19;;;;;;;6.47;3.70;;;;;;;;;;700695;28;2715;-67
2024/02/15 01:05:39;;;;;;;6.30;3.90;;;;;;;;;;702508;28;1403;-67
2024/02/15 01:05:59;;;;;;;6.37;3.80;;;;;;;;;;706259;28;1160;-67
2024/02/15 01:06:19;;;;;;;6.40;3.60;;;;;;;;;;703500;28;869;-66
2024/02/15 01:06:41;;;;;;;7.93;3.80;;;;;;;;;;703724;28;1190;-66
2024/02/15 01:07:02;;;;;;;7.55;4.03;;;;;;;;;;702348;28;4359;-66
2024/02/15 01:07:26;;;;;;;6.88;3.85;;;;;;;;;;702893;27;1884;-66
2024/02/15 01:07:48;;;;;;;5.95;4.00;;;;;;;;;;704941;27;911;-67
2024/02/15 01:08:09;;;;;;;6.45;3.70;;;;;;;;;;705106;27;1396;-66
2024/02/15 01:08:29;;;;;;;6.60;3.80;;;;;;;;;;703538;28;1933;-66
2024/02/15 01:08:49;;;;;;;6.45;3.80;;;;;;;;;;706642;27;904;-67
2024/02/15 01:09:10;;;;;;;7.20;3.90;;;;;;;;;;704413;28;939;-67
2024/02/15 01:09:30;;;;;;;9.90;3.85;;;;;;;;;;703507;27;2065;-67
2024/02/15 01:09:50;;;;;;;7.77;3.90;;;;;;;;;;704672;28;1431;-67
2024/02/15 01:10:11;;;;;;;6.87;4.00;;;;;;;;;;702534;28;4300;-67
2024/02/15 01:10:31;;;;;;;7.15;4.13;;;;;;;;;;700182;28;1456;-67
2024/02/15 01:10:53;;;;;;;6.80;3.80;;;;;;;;;;700776;28;879;-67
2024/02/15 01:11:13;;;;;;;6.38;3.80;;;;;;;;;;699631;28;2248;-66
2024/02/15 01:11:35;;;;;;;5.90;3.80;;;;;;;;;;701807;28;1113;-67
2024/02/15 01:11:55;;;;;;;5.88;3.75;;;;;;;;;;702988;28;1017;-66
2024/02/15 01:12:16;;;;;;;6.68;3.80;;;;;;;;;;700898;28;1883;-67
2024/02/15 01:12:36;;;;;;;6.53;4.20;;;;;;;;;;703335;27;833;-66
2024/02/15 01:12:56;;;;;;;6.53;3.80;;;;;;;;;;703465;27;4493;-67
2024/02/15 01:13:16;;;;;;;8.60;4.00;;;;;;;;;;702847;28;1257;-67
2024/02/15 01:13:37;;;;;;;8.53;3.83;;;;;;;;;;702833;28;912;-67
2024/02/15 01:13:58;;;;;;;7.38;3.80;;;;;;;;;;703399;27;1043;-67
2024/02/15 01:14:18;;;;;;;6.87;3.87;;;;;;;;;;702649;28;2179;-67
2024/02/15 01:14:38;;;;;;;5.80;3.60;;;;;;;;;;704247;28;1380;-66
2024/02/15 01:14:58;;;;;;;7.03;3.78;;;;;;;;;;703392;28;999;-67
2024/02/15 01:15:20;;;;;;;7.30;3.97;;;;;;;;;;702458;27;1694;-66
2024/02/15 01:15:41;;;;;;;6.53;3.70;;;;;;;;;;703155;28;1386;-67
2024/02/15 01:16:03;;;;;;;5.47;3.57;;;;;;;;;;700634;28;4332;-66
2024/02/15 01:16:24;;;;;;;6.05;3.72;;;;;;;;;;700182;28;1795;-66
2024/02/15 01:16:44;;;;;;;6.70;3.60;;;;;;;;;;700612;28;1425;-66
2024/02/15 01:17:05;;;;;;;7.57;3.80;;;;;;;;;;700344;28;895;-67
2024/02/15 01:17:25;;;;;;;9.23;4.25;;;;;;;;;;699042;28;2064;-66
2024/02/15 01:17:45;;;;;;;9.47;4.27;;;;;;;;;;703604;27;1075;-67
2024/02/15 01:18:05;;;;;;;9.80;4.10;;;;;;;;;;703741;28;942;-66
2024/02/15 01:18:26;;;;;;;8.40;4.00;;;;;;;;;;702064;28;2722;-66
2024/02/15 01:18:47;;;;;;;7.55;4.10;;;;;;;;;;705280;28;816;-66
2024/02/15 01:19:07;;;;;;;6.80;3.80;;;;;;;;;;705257;27;4310;-66
2024/02/15 01:19:27;;;;;;;7.17;3.80;;;;;;;;;;702877;28;2913;-66
2024/02/15 01:19:48;;;;;;;6.82;4.00;;;;;;;;;;704756;27;939;-66
2024/02/15 01:20:08;;;;;;;8.53;4.10;;;;;;;;;;704463;28;1192;-66
2024/02/15 01:20:28;;;;;;;7.18;3.70;;;;;;;;;;705008;28;1797;-66
2024/02/15 01:20:49;;;;;;;7.47;3.70;;;;;;;;;;704678;27;1209;-66
2024/02/15 01:21:11;;;;;;;6.47;3.80;;;;;;;;;;704489;28;903;-66
2024/02/15 01:21:33;;;;;;;6.25;3.78;;;;;;;;;;703959;27;2141;-66
2024/02/15 01:21:53;;;;;;;6.75;3.90;;;;;;;;;;703271;28;1081;-65
2024/02/15 01:22:13;;;;;;;7.07;3.90;;;;;;;;;;701931;28;4305;-66
2024/02/15 01:22:34;;;;;;;7.60;4.00;;;;;;;;;;705125;28;1545;-66
2024/02/15 01:22:55;;;;;;;6.53;3.78;;;;;;;;;;700810;28;1185;-65
2024/02/15 01:23:15;;;;;;;5.77;3.70;;;;;;;;;;696210;28;2630;-66
2024/02/15 01:23:36;;;;;;;6.65;3.70;;;;;;;;;;698839;28;881;-66
2024/02/15 01:23:56;;;;;;;6.90;3.80;;;;;;;;;;699380;28;1267;-67
2024/02/15 01:24:17;;;;;;;7.40;3.83;;;;;;;;;;696940;28;2284;-66
2024/02/15 01:24:37;;;;;;;6.72;3.63;;;;;;;;;;699520;28;920;-66
2024/02/15 01:24:58;;;;;;;7.50;3.67;;;;;;;;;;700297;28;4399;-66
2024/02/15 01:25:18;;;;;;;6.35;3.80;;;;;;;;;;703613;27;1030;-66
2024/02/15 01:25:39;;;;;;;7.40;3.83;;;;;;;;;;705429;27;1201;-67
2024/02/15 01:26:01;;;;;;;7.07;3.60;;;;;;;;;;701822;28;1325;-66
2024/02/15 01:26:21;;;;;;;9.60;4.55;;;;;;;;;;701739;28;2302;-66
2024/02/15 01:26:41;;;;;;;12.50;4.60;;;;;;;;;;704077;28;1317;-66
2024/02/15 01:27:01;;;;;;;7.50;3.87;;;;;;;;;;699725;28;1416;-66
2024/02/15 01:27:22;;;;;;;7.53;3.90;;;;;;;;;;699336;28;1764;-66
2024/02/15 01:27:42;;;;;;;8.80;4.00;;;;;;;;;;699901;28;775;-66
2024/02/15 01:28:02;;;;;;;6.43;3.77;;;;;;;;;;700282;28;4294;-66
2024/02/15 01:28:22;;;;;;;6.72;3.70;;;;;;;;;;698266;28;2520;-65
2024/02/15 01:28:43;;;;;;;6.00;3.77;;;;;;;;;;700797;28;857;-66
2024/02/15 01:29:03;;;;;;;7.87;3.80;;;;;;;;;;702778;28;1257;-65
2024/02/15 01:29:25;;;;;;;7.53;3.72;;;;;;;;;;701055;28;2110;-66
2024/02/15 01:29:45;;;;;;;7.15;3.67;;;;;;;;;;701655;28;928;-65
2024/02/15 01:30:06;;;;;;;7.57;3.67;;;;;;;;;;699959;28;1277;-67
2024/02/15 01:30:27;;;;;;;8.47;3.70;;;;;;;;;;699884;28;2291;-66
2024/02/15 01:30:47;;;;;;;7.10;3.90;;;;;;;;;;701403;28;900;-65
2024/02/15 01:31:09;;;;;;;6.37;3.63;;;;;;;;;;701995;28;4531;-65
2024/02/15 01:31:30;;;;;;;8.60;3.72;;;;;;;;;;700486;28;2285;-66
2024/02/15 01:31:50;;;;;;;6.67;3.90;;;;;;;;;;700521;28;994;-66
2024/02/15 01:32:11;;;;;;;5.27;3.80;;;;;;;;;;698155;28;1387;-66
2024/02/15 01:32:31;;;;;;;7.17;3.63;;;;;;;;;;696953;28;1962;-65
2024/02/15 01:32:51;;;;;;;8.93;3.80;;;;;;;;;;700571;28;844;-66
2024/02/15 01:33:11;;;;;;;6.83;3.70;;;;;;;;;;700977;28;991;-66
2024/02/15 01:33:32;;;;;;;6.70;3.90;;;;;;;;;;699897;28;1124;-67
2024/02/15 01:33:52;;;;;;;8.02;4.30;;;;;;;;;;700721;28;1290;-66
2024/02/15 01:34:12;;;;;;;6.77;4.00;;;;;;;;;;705629;27;4288;-66
2024/02/15 01:34:33;;;;;;;7.40;4.03;;;;;;;;;;704031;27;1448;-66
2024/02/15 01:34:54;;;;;;;7.50;4.10;;;;;;;;;;704927;28;925;-66
2024/02/15 01:35:14;;;;;;;7.10;3.92;;;;;;;;;;701684;28;1021;-67
2024/02/15 01:35:35;;;;;;;7.00;3.80;;;;;;;;;;702974;28;998;-66
2024/02/15 01:35:56;;;;;;;6.73;4.03;;;;;;;;;;705212;28;940;-67
2024/02/15 01:36:17;;;;;;;6.05;3.85;;;;;;;;;;703294;27;1078;-67
2024/02/15 01:36:37;;;;;;;7.45;4.10;;;;;;;;;;704385;28;812;-67
2024/02/15 01:36:57;;;;;;;6.75;4.00;;;;;;;;;;703242;28;4320;-66
2024/02/15 01:37:18;;;;;;;8.20;4.20;;;;;;;;;;703154;28;2276;-66
2024/02/15 01:37:38;;;;;;;7.30;3.93;;;;;;;;;;705100;28;781;-66
2024/02/15 01:37:58;;;;;;;7.57;4.07;;;;;;;;;;702884;28;948;-65
2024/02/15 01:38:18;;;;;;;7.88;4.10;;;;;;;;;;702674;28;1868;-65
2024/02/15 01:38:38;;;;;;;8.10;4.10;;;;;;;;;;704098;28;1303;-66
2024/02/15 01:38:59;;;;;;;7.20;4.10;;;;;;;;;;704873;28;1141;-66
2024/02/15 01:39:19;;;;;;;8.40;4.32;;;;;;;;;;702521;28;2174;-66
2024/02/15 01:39:40;;;;;;;7.63;4.20;;;;;;;;;;705336;28;768;-66
2024/02/15 01:40:00;;;;;;;7.80;4.18;;;;;;;;;;704327;28;4495;-67
2024/02/15 01:40:21;;;;;;;7.10;4.30;;;;;;;;;;701723;28;1213;-67
2024/02/15 01:40:42;;;;;;;8.52;4.20;;;;;;;;;;704107;28;2005;-66
2024/02/15 01:41:03;;;;;;;7.35;4.25;;;;;;;;;;705765;28;990;-66
2024/02/15 01:41:23;;;;;;;6.95;3.97;;;;;;;;;;699753;28;1819;-66
2024/02/15 01:41:48;;;;;;;14.63;4.50;;;;;;;;;;702576;28;1300;-66
2024/02/15 01:42:08;;;;;;;12.40;4.70;;;;;;;;;;700698;28;1074;-66
2024/02/15 01:42:28;;;;;;;7.33;4.00;;;;;;;;;;699600;28;1426;-66
2024/02/15 01:42:51;;;;;;;6.55;3.97;;;;;;;;;;701300;28;813;-66
2024/02/15 01:43:12;;;;;;;6.22;3.80;;;;;;;;;;701741;28;4221;-67
2024/02/15 01:43:32;;;;;;;6.80;3.90;;;;;;;;;;702846;28;1723;-66
2024/02/15 01:43:52;;;;;;;6.87;3.90;;;;;;;;;;704981;28;1204;-66
2024/02/15 01:44:13;;;;;;;8.00;4.30;;;;;;;;;;704220;28;828;-67
2024/02/15 01:44:36;;;;;;;9.65;4.40;;;;;;;;;;702490;28;1511;-67
2024/02/15 01:44:57;;;;;;;7.63;4.30;;;;;;;;;;702227;28;1302;-67
2024/02/15 01:45:17;;;;;;;8.70;4.57;;;;;;;;;;702717;28;1875;-67
2024/02/15 01:45:38;;;;;;;8.20;4.30;;;;;;;;;;704007;28;998;-66
2024/02/15 01:46:01;;;;;;;8.60;4.20;;;;;;;;;;699772;28;4447;-66
2024/02/15 01:46:21;;;;;;;11.45;4.65;;;;;;;;;;699660;28;2544;-66
2024/02/15 01:46:43;;;;;;;27.23;6.40;;;;;;;;;;701210;28;1324;-67
2024/02/15 01:47:04;;;;;;;15.65;5.10;;;;;;;;;;700369;28;1041;-66
2024/02/15 01:47:24;;;;;;;9.30;4.25;;;;;;;;;;700207;28;2164;-67
2024/02/15 01:47:44;;;;;;;9.00;4.10;;;;;;;;;;700790;28;908;-66
2024/02/15 01:48:05;;;;;;;7.30;4.43;;;;;;;;;;705248;28;797;-66
2024/02/15 01:48:26;;;;;;;7.20;4.10;;;;;;;;;;701599;28;1925;-66
2024/02/15 01:48:46;;;;;;;8.57;4.35;;;;;;;;;;705031;28;1214;-67
2024/02/15 01:49:07;;;;;;;7.67;4.20;;;;;;;;;;704615;28;4378;-66
2024/02/15 01:49:27;;;;;;;7.45;4.10;;;;;;;;;;700097;28;2200;-67
2024/02/15 01:49:48;;;;;;;6.18;4.00;;;;;;;;;;701896;28;1265;-67
2024/02/15 01:50:12;;;;;;;7.57;3.95;;;;;;;;;;702571;28;821;-67
2024/02/15 01:50:34;;;;;;;8.40;4.00;;;;;;;;;;698677;28;2393;-66
2024/02/15 01:50:54;;;;;;;7.35;3.80;;;;;;;;;;701845;28;916;-67
2024/02/15 01:51:15;;;;;;;6.37;4.10;;;;;;;;;;701446;28;761;-67
2024/02/15 01:51:37;;;;;;;7.30;4.00;;;;;;;;;;704121;28;1204;-66
2024/02/15 01:51:57;;;;;;;7.65;4.20;;;;;;;;;;702514;28;4273;-66
2024/02/15 01:52:17;;;;;;;7.88;4.20;;;;;;;;;;700499;28;1774;-66
2024/02/15 01:52:39;;;;;;;8.27;4.30;;;;;;;;;;701423;28;841;-67
2024/02/15 01:53:01;;;;;;;8.90;4.30;;;;;;;;;;701066;28;1260;-67
2024/02/15 01:53:21;;;;;;;8.00;4.25;;;;;;;;;;699834;28;2004;-67
2024/02/15 01:53:44;;;;;;;6.80;4.22;;;;;;;;;;702247;28;936;-67
2024/02/15 01:54:05;;;;;;;7.78;4.25;;;;;;;;;;705518;28;1108;-66
2024/02/15 01:54:25;;;;;;;7.33;4.17;;;;;;;;;;704677;28;1818;-67
2024/02/15 01:54:45;;;;;;;7.68;4.20;;;;;;;;;;703795;28;1259;-67
2024/02/15 01:55:08;;;;;;;7.33;4.20;;;;;;;;;;704306;27;4461;-67
2024/02/15 01:55:28;;;;;;;7.53;4.35;;;;;;;;;;700440;28;1720;-67
2024/02/15 01:55:48;;;;;;;8.60;4.50;;;;;;;;;;700918;28;1243;-67
2024/02/15 01:56:09;;;;;;;6.70;4.30;;;;;;;;;;702906;28;1236;-67
2024/02/15 01:56:30;;;;;;;7.95;4.43;;;;;;;;;;699601;28;2622;-66
2024/02/15 01:56:50;;;;;;;7.93;4.57;;;;;;;;;;700622;28;872;-66
2024/02/15 01:57:10;;;;;;;7.57;4.30;;;;;;;;;;701795;28;932;-67
2024/02/15 01:57:31;;;;;;;7.65;4.20;;;;;;;;;;703312;28;1457;-66
2024/02/15 01:57:51;;;;;;;6.60;3.80;;;;;;;;;;703809;28;1320;-67
2024/02/15 01:58:11;;;;;;;6.40;4.10;;;;;;;;;;704781;28;4679;-67
2024/02/15 01:58:33;;;;;;;8.25;4.28;;;;;;;;;;699116;28;2559;-66
2024/02/15 01:58:53;;;;;;;8.18;4.70;;;;;;;;;;700991;28;789;-67
2024/02/15 01:59:14;;;;;;;6.47;4.70;;;;;;;;;;701953;28;1390;-67
2024/02/15 01:59:35;;;;;;;7.53;4.60;;;;;;;;;;699329;28;1932;-67
2024/02/15 01:59:55;;;;;;;7.50;4.43;;;;;;;;;;701754;28;1407;-68
2024/02/15 02:00:20;;;;;;;9.00;4.45;;;;;;;;;;697210;28;3468;-67
2024/02/15 02:00:40;;;;;;;9.10;4.38;;;;;;;;;;695502;28;4964;-67
2024/02/15 02:01:03;;;;;;;7.93;4.50;;;;;;;;;;697035;28;4542;-67
2024/02/15 02:01:24;;;;;;;7.47;4.60;;;;;;;;;;697110;28;1213;-67
2024/02/15 02:01:44;;;;;;;7.78;4.40;;;;;;;;;;699440;28;6523;-67
2024/02/15 02:02:08;;;;;;;7.87;4.40;;;;;;;;;;702871;28;964;-67
2024/02/15 02:02:30;;;;;;;7.70;4.43;;;;;;;;;;703341;28;1683;-66
2024/02/15 02:02:52;;;;;;;8.63;4.72;;;;;;;;;;705647;28;1254;-67
2024/02/15 02:03:14;;;;;;;9.50;4.57;;;;;;;;;;703834;28;1010;-67
2024/02/15 02:03:35;;;;;;;6.63;4.15;;;;;;;;;;702130;28;1561;-67
2024/02/15 02:03:55;;;;;;;6.00;4.20;;;;;;;;;;704676;28;929;-67
2024/02/15 02:04:15;;;;;;;6.37;4.03;;;;;;;;;;703758;28;4402;-66
2024/02/15 02:04:37;;;;;;;8.63;4.20;;;;;;;;;;703250;28;1435;-66
2024/02/15 02:04:57;;;;;;;9.55;4.25;;;;;;;;;;700889;28;975;-67
2024/02/15 02:05:17;;;;;;;7.30;4.23;;;;;;;;;;700920;28;1638;-68
2024/02/15 02:05:38;;;;;;;8.10;4.63;;;;;;;;;;701533;28;797;-66
2024/02/15 02:06:00;;;;;;;7.88;4.65;;;;;;;;;;697055;28;1715;-67
2024/02/15 02:06:20;;;;;;;8.13;4.18;;;;;;;;;;696774;28;2300;-68
2024/02/15 02:06:41;;;;;;;6.30;4.00;;;;;;;;;;700512;28;912;-68
2024/02/15 02:07:01;;;;;;;7.07;4.03;;;;;;;;;;700749;28;4496;-67
2024/02/15 02:07:21;;;;;;;7.77;4.30;;;;;;;;;;700056;28;1731;-67
2024/02/15 02:07:42;;;;;;;6.78;4.30;;;;;;;;;;701249;28;1600;-67
2024/02/15 02:08:04;;;;;;;7.67;4.37;;;;;;;;;;704365;28;998;-67
2024/02/15 02:08:24;;;;;;;6.63;4.00;;;;;;;;;;702023;28;2156;-67
2024/02/15 02:08:44;;;;;;;6.70;4.20;;;;;;;;;;703570;28;790;-67